sensor_id;sensor_type;location;lat;lon;timestamp;pressure;altitude;pressure_sealevel;temperature
54746;BMP180;40640;48.130;11.356;2023-07-24T00:01:15;95160.00;;;21.20
54746;BMP180;40640;48.130;11.356;2023-07-24T00:05:19;95148.00;;;21.10
54746;BMP180;40640;48.130;11.356;2023-07-24T00:09:21;95147.00;;;21.10
54746;BMP180;40640;48.130;11.356;2023-07-24T00:13:26;95141.00;;;21.10
54746;BMP180;40640;48.130;11.356;2023-07-24T00:17:28;95133.00;;;21.00
54746;BMP180;40640;48.130;11.356;2023-07-24T00:21:31;95131.00;;;21.00
54746;BMP180;40640;48.130;11.356;2023-07-24T00:25:34;95120.00;;;21.00
54746;BMP180;40640;48.130;11.356;2023-07-24T00:29:38;95111.00;;;20.90
54746;BMP180;40640;48.130;11.356;2023-07-24T00:33:41;95103.00;;;20.90
54746;BMP180;40640;48.130;11.356;2023-07-24T00:37:45;95098.00;;;20.90
54746;BMP180;40640;48.130;11.356;2023-07-24T00:41:48;95098.00;;;20.90
54746;BMP180;40640;48.130;11.356;2023-07-24T00:45:54;95095.00;;;20.80
54746;BMP180;40640;48.130;11.356;2023-07-24T00:49:57;95107.00;;;20.80
54746;BMP180;40640;48.130;11.356;2023-07-24T00:54:01;95092.00;;;20.70
54746;BMP180;40640;48.130;11.356;2023-07-24T00:58:04;95091.00;;;20.70
54746;BMP180;40640;48.130;11.356;2023-07-24T01:02:09;95087.00;;;20.60
54746;BMP180;40640;48.130;11.356;2023-07-24T01:06:13;95076.00;;;20.60
54746;BMP180;40640;48.130;11.356;2023-07-24T01:10:16;95090.00;;;20.50
54746;BMP180;40640;48.130;11.356;2023-07-24T01:14:21;95090.00;;;20.50
54746;BMP180;40640;48.130;11.356;2023-07-24T01:18:26;95079.00;;;20.40
54746;BMP180;40640;48.130;11.356;2023-07-24T01:22:38;95074.00;;;20.40
54746;BMP180;40640;48.130;11.356;2023-07-24T01:26:44;95060.00;;;20.40
54746;BMP180;40640;48.130;11.356;2023-07-24T01:30:47;95049.00;;;20.40
54746;BMP180;40640;48.130;11.356;2023-07-24T01:34:51;95049.00;;;20.40
54746;BMP180;40640;48.130;11.356;2023-07-24T01:38:55;95041.00;;;20.30
54746;BMP180;40640;48.130;11.356;2023-07-24T01:43:01;95055.00;;;20.30
54746;BMP180;40640;48.130;11.356;2023-07-24T01:47:04;95074.00;;;20.30
54746;BMP180;40640;48.130;11.356;2023-07-24T01:51:07;95073.00;;;20.30
54746;BMP180;40640;48.130;11.356;2023-07-24T01:55:10;95065.00;;;20.20
54746;BMP180;40640;48.130;11.356;2023-07-24T01:59:14;95064.00;;;20.10
54746;BMP180;40640;48.130;11.356;2023-07-24T02:03:17;95054.00;;;20.10
54746;BMP180;40640;48.130;11.356;2023-07-24T02:07:20;95051.00;;;20.10
54746;BMP180;40640;48.130;11.356;2023-07-24T02:11:23;95054.00;;;20.10
54746;BMP180;40640;48.130;11.356;2023-07-24T02:15:27;95055.00;;;20.10
54746;BMP180;40640;48.130;11.356;2023-07-24T02:19:30;95085.00;;;20.20
54746;BMP180;40640;48.130;11.356;2023-07-24T02:23:34;95164.00;;;20.00
54746;BMP180;40640;48.130;11.356;2023-07-24T02:27:39;95150.00;;;20.00
54746;BMP180;40640;48.130;11.356;2023-07-24T02:31:43;95129.00;;;20.00
54746;BMP180;40640;48.130;11.356;2023-07-24T02:35:46;95130.00;;;20.00
54746;BMP180;40640;48.130;11.356;2023-07-24T02:39:49;95109.00;;;20.00
54746;BMP180;40640;48.130;11.356;2023-07-24T02:43:52;95087.00;;;20.10
54746;BMP180;40640;48.130;11.356;2023-07-24T02:47:56;95074.00;;;20.10
54746;BMP180;40640;48.130;11.356;2023-07-24T02:51:59;95124.00;;;20.20
54746;BMP180;40640;48.130;11.356;2023-07-24T02:56:02;95225.00;;;20.20
54746;BMP180;40640;48.130;11.356;2023-07-24T03:00:06;95286.00;;;20.30
54746;BMP180;40640;48.130;11.356;2023-07-24T03:04:11;95358.00;;;20.40
54746;BMP180;40640;48.130;11.356;2023-07-24T03:08:13;95329.00;;;20.30
54746;BMP180;40640;48.130;11.356;2023-07-24T03:12:16;95301.00;;;20.20
54746;BMP180;40640;48.130;11.356;2023-07-24T03:16:19;95237.00;;;20.20
54746;BMP180;40640;48.130;11.356;2023-07-24T03:20:24;95247.00;;;20.20
54746;BMP180;40640;48.130;11.356;2023-07-24T03:24:27;95223.00;;;20.20
54746;BMP180;40640;48.130;11.356;2023-07-24T03:28:30;95156.00;;;20.10
54746;BMP180;40640;48.130;11.356;2023-07-24T03:32:33;95123.00;;;20.10
54746;BMP180;40640;48.130;11.356;2023-07-24T03:36:37;95085.00;;;20.10
54746;BMP180;40640;48.130;11.356;2023-07-24T03:40:43;95053.00;;;20.10
54746;BMP180;40640;48.130;11.356;2023-07-24T03:44:46;95052.00;;;20.10
54746;BMP180;40640;48.130;11.356;2023-07-24T03:48:49;95083.00;;;20.10
54746;BMP180;40640;48.130;11.356;2023-07-24T03:52:53;95069.00;;;20.00
54746;BMP180;40640;48.130;11.356;2023-07-24T03:56:56;95074.00;;;19.90
54746;BMP180;40640;48.130;11.356;2023-07-24T04:00:59;95060.00;;;19.90
54746;BMP180;40640;48.130;11.356;2023-07-24T04:05:03;95062.00;;;20.00
54746;BMP180;40640;48.130;11.356;2023-07-24T04:09:07;95062.00;;;20.00
54746;BMP180;40640;48.130;11.356;2023-07-24T04:13:12;95044.00;;;19.90
54746;BMP180;40640;48.130;11.356;2023-07-24T04:17:15;95053.00;;;19.90
54746;BMP180;40640;48.130;11.356;2023-07-24T04:21:18;95077.00;;;20.00
54746;BMP180;40640;48.130;11.356;2023-07-24T04:25:22;95078.00;;;20.00
54746;BMP180;40640;48.130;11.356;2023-07-24T04:29:25;95090.00;;;19.90
54746;BMP180;40640;48.130;11.356;2023-07-24T04:33:28;95095.00;;;19.80
54746;BMP180;40640;48.130;11.356;2023-07-24T04:37:33;95106.00;;;19.90
54746;BMP180;40640;48.130;11.356;2023-07-24T04:41:37;95091.00;;;19.80
54746;BMP180;40640;48.130;11.356;2023-07-24T04:45:40;95098.00;;;19.70
54746;BMP180;40640;48.130;11.356;2023-07-24T04:49:43;95110.00;;;19.80
54746;BMP180;40640;48.130;11.356;2023-07-24T04:53:46;95115.00;;;19.80
54746;BMP180;40640;48.130;11.356;2023-07-24T04:57:50;95115.00;;;19.90
54746;BMP180;40640;48.130;11.356;2023-07-24T05:01:53;95094.00;;;20.00
54746;BMP180;40640;48.130;11.356;2023-07-24T05:05:56;95087.00;;;20.10
54746;BMP180;40640;48.130;11.356;2023-07-24T05:09:59;95070.00;;;20.00
54746;BMP180;40640;48.130;11.356;2023-07-24T05:14:03;95060.00;;;20.00
54746;BMP180;40640;48.130;11.356;2023-07-24T05:18:06;95059.00;;;20.00
54746;BMP180;40640;48.130;11.356;2023-07-24T05:22:09;95049.00;;;19.90
54746;BMP180;40640;48.130;11.356;2023-07-24T05:26:12;95034.00;;;19.90
54746;BMP180;40640;48.130;11.356;2023-07-24T05:30:17;95051.00;;;20.00
54746;BMP180;40640;48.130;11.356;2023-07-24T05:34:19;95048.00;;;20.10
54746;BMP180;40640;48.130;11.356;2023-07-24T05:38:22;95035.00;;;20.20
54746;BMP180;40640;48.130;11.356;2023-07-24T05:42:25;95046.00;;;20.30
54746;BMP180;40640;48.130;11.356;2023-07-24T05:46:29;95040.00;;;20.80
54746;BMP180;40640;48.130;11.356;2023-07-24T05:50:33;95032.00;;;21.30
54746;BMP180;40640;48.130;11.356;2023-07-24T05:54:35;95025.00;;;22.00
54746;BMP180;40640;48.130;11.356;2023-07-24T05:58:38;95007.00;;;22.90
54746;BMP180;40640;48.130;11.356;2023-07-24T06:02:42;94985.00;;;23.10
54746;BMP180;40640;48.130;11.356;2023-07-24T06:06:46;95008.00;;;24.00
54746;BMP180;40640;48.130;11.356;2023-07-24T06:10:50;95021.00;;;24.10
54746;BMP180;40640;48.130;11.356;2023-07-24T06:14:53;95020.00;;;23.50
54746;BMP180;40640;48.130;11.356;2023-07-24T06:18:57;95008.00;;;24.30
54746;BMP180;40640;48.130;11.356;2023-07-24T06:23:00;94979.00;;;25.40
54746;BMP180;40640;48.130;11.356;2023-07-24T06:27:05;94970.00;;;25.80
54746;BMP180;40640;48.130;11.356;2023-07-24T06:31:09;94968.00;;;26.60
54746;BMP180;40640;48.130;11.356;2023-07-24T06:35:13;94980.00;;;25.90
54746;BMP180;40640;48.130;11.356;2023-07-24T06:39:16;94974.00;;;25.10
54746;BMP180;40640;48.130;11.356;2023-07-24T06:43:19;94983.00;;;24.70
54746;BMP180;40640;48.130;11.356;2023-07-24T06:47:22;95012.00;;;24.80
54746;BMP180;40640;48.130;11.356;2023-07-24T06:51:26;95020.00;;;24.80
54746;BMP180;40640;48.130;11.356;2023-07-24T06:55:29;95005.00;;;24.70
54746;BMP180;40640;48.130;11.356;2023-07-24T06:59:32;95016.00;;;25.00
54746;BMP180;40640;48.130;11.356;2023-07-24T07:03:35;95039.00;;;25.00
54746;BMP180;40640;48.130;11.356;2023-07-24T07:07:39;95060.00;;;24.60
54746;BMP180;40640;48.130;11.356;2023-07-24T07:11:42;95076.00;;;24.30
54746;BMP180;40640;48.130;11.356;2023-07-24T07:15:46;95118.00;;;24.00
54746;BMP180;40640;48.130;11.356;2023-07-24T07:19:49;95205.00;;;23.80
54746;BMP180;40640;48.130;11.356;2023-07-24T07:23:53;95262.00;;;23.50
54746;BMP180;40640;48.130;11.356;2023-07-24T07:27:56;95254.00;;;22.60
54746;BMP180;40640;48.130;11.356;2023-07-24T07:31:59;95246.00;;;22.30
54746;BMP180;40640;48.130;11.356;2023-07-24T07:36:02;95253.00;;;22.30
54746;BMP180;40640;48.130;11.356;2023-07-24T07:40:07;95234.00;;;22.30
54746;BMP180;40640;48.130;11.356;2023-07-24T07:44:10;95248.00;;;22.30
54746;BMP180;40640;48.130;11.356;2023-07-24T07:48:13;95232.00;;;22.20
54746;BMP180;40640;48.130;11.356;2023-07-24T07:52:16;95226.00;;;22.20
54746;BMP180;40640;48.130;11.356;2023-07-24T07:56:21;95223.00;;;22.00
54746;BMP180;40640;48.130;11.356;2023-07-24T08:00:24;95237.00;;;22.00
54746;BMP180;40640;48.130;11.356;2023-07-24T08:04:27;95222.00;;;21.90
54746;BMP180;40640;48.130;11.356;2023-07-24T08:08:29;95222.00;;;21.90
54746;BMP180;40640;48.130;11.356;2023-07-24T08:12:34;95204.00;;;21.80
54746;BMP180;40640;48.130;11.356;2023-07-24T08:16:36;95197.00;;;21.80
54746;BMP180;40640;48.130;11.356;2023-07-24T08:20:39;95150.00;;;21.90
54746;BMP180;40640;48.130;11.356;2023-07-24T08:24:42;95129.00;;;21.90
54746;BMP180;40640;48.130;11.356;2023-07-24T08:28:47;95114.00;;;22.00
54746;BMP180;40640;48.130;11.356;2023-07-24T08:32:50;95105.00;;;22.30
54746;BMP180;40640;48.130;11.356;2023-07-24T08:36:54;95033.00;;;22.20
54746;BMP180;40640;48.130;11.356;2023-07-24T08:41:02;94998.00;;;22.20
54746;BMP180;40640;48.130;11.356;2023-07-24T08:45:11;95018.00;;;22.10
54746;BMP180;40640;48.130;11.356;2023-07-24T08:49:14;95029.00;;;21.90
54746;BMP180;40640;48.130;11.356;2023-07-24T08:53:18;95056.00;;;21.70
54746;BMP180;40640;48.130;11.356;2023-07-24T08:57:22;95077.00;;;21.60
54746;BMP180;40640;48.130;11.356;2023-07-24T09:01:26;95069.00;;;21.50
54746;BMP180;40640;48.130;11.356;2023-07-24T09:05:29;95077.00;;;21.40
54746;BMP180;40640;48.130;11.356;2023-07-24T09:09:32;95068.00;;;21.30
54746;BMP180;40640;48.130;11.356;2023-07-24T09:13:36;95057.00;;;21.40
54746;BMP180;40640;48.130;11.356;2023-07-24T09:17:49;95070.00;;;21.60
54746;BMP180;40640;48.130;11.356;2023-07-24T09:21:52;95076.00;;;22.10
54746;BMP180;40640;48.130;11.356;2023-07-24T09:25:55;95051.00;;;22.40
54746;BMP180;40640;48.130;11.356;2023-07-24T09:29:58;95031.00;;;22.60
54746;BMP180;40640;48.130;11.356;2023-07-24T09:34:02;95036.00;;;22.70
54746;BMP180;40640;48.130;11.356;2023-07-24T09:38:06;95021.00;;;23.30
54746;BMP180;40640;48.130;11.356;2023-07-24T09:42:09;95009.00;;;23.90
54746;BMP180;40640;48.130;11.356;2023-07-24T09:46:12;95003.00;;;23.70
54746;BMP180;40640;48.130;11.356;2023-07-24T09:50:17;94990.00;;;23.80
54746;BMP180;40640;48.130;11.356;2023-07-24T09:54:25;94978.00;;;24.10
54746;BMP180;40640;48.130;11.356;2023-07-24T09:58:32;94991.00;;;23.90
54746;BMP180;40640;48.130;11.356;2023-07-24T10:02:36;94988.00;;;23.80
54746;BMP180;40640;48.130;11.356;2023-07-24T10:06:41;94968.00;;;24.10
54746;BMP180;40640;48.130;11.356;2023-07-24T10:10:44;94961.00;;;24.70
54746;BMP180;40640;48.130;11.356;2023-07-24T10:14:48;94947.00;;;25.30
54746;BMP180;40640;48.130;11.356;2023-07-24T10:18:51;94975.00;;;25.40
54746;BMP180;40640;48.130;11.356;2023-07-24T10:23:00;94974.00;;;25.40
54746;BMP180;40640;48.130;11.356;2023-07-24T10:27:04;94998.00;;;25.80
54746;BMP180;40640;48.130;11.356;2023-07-24T10:31:08;94992.00;;;26.10
54746;BMP180;40640;48.130;11.356;2023-07-24T10:35:21;94990.00;;;26.00
54746;BMP180;40640;48.130;11.356;2023-07-24T10:39:37;94968.00;;;25.80
54746;BMP180;40640;48.130;11.356;2023-07-24T10:43:42;94967.00;;;25.90
54746;BMP180;40640;48.130;11.356;2023-07-24T10:47:49;94958.00;;;25.90
54746;BMP180;40640;48.130;11.356;2023-07-24T10:51:55;94952.00;;;26.40
54746;BMP180;40640;48.130;11.356;2023-07-24T10:56:00;94954.00;;;27.00
54746;BMP180;40640;48.130;11.356;2023-07-24T11:00:03;94947.00;;;27.70
54746;BMP180;40640;48.130;11.356;2023-07-24T11:04:06;94919.00;;;28.20
54746;BMP180;40640;48.130;11.356;2023-07-24T11:08:11;94921.00;;;28.50
54746;BMP180;40640;48.130;11.356;2023-07-24T11:12:18;94900.00;;;28.60
54746;BMP180;40640;48.130;11.356;2023-07-24T11:16:20;94882.00;;;28.90
54746;BMP180;40640;48.130;11.356;2023-07-24T11:20:24;94874.00;;;28.90
54746;BMP180;40640;48.130;11.356;2023-07-24T11:24:26;94881.00;;;29.00
54746;BMP180;40640;48.130;11.356;2023-07-24T11:28:39;94885.00;;;29.20
54746;BMP180;40640;48.130;11.356;2023-07-24T11:32:42;94891.00;;;29.00
54746;BMP180;40640;48.130;11.356;2023-07-24T11:36:46;94887.00;;;29.00
54746;BMP180;40640;48.130;11.356;2023-07-24T11:40:49;94878.00;;;29.20
54746;BMP180;40640;48.130;11.356;2023-07-24T11:44:54;94869.00;;;28.80
54746;BMP180;40640;48.130;11.356;2023-07-24T11:48:57;94878.00;;;28.30
54746;BMP180;40640;48.130;11.356;2023-07-24T11:53:00;94889.00;;;27.60
54746;BMP180;40640;48.130;11.356;2023-07-24T11:57:03;94906.00;;;27.10
54746;BMP180;40640;48.130;11.356;2023-07-24T12:01:18;94902.00;;;26.80
54746;BMP180;40640;48.130;11.356;2023-07-24T12:05:21;94928.00;;;26.90
54746;BMP180;40640;48.130;11.356;2023-07-24T12:09:29;94974.00;;;26.70
54746;BMP180;40640;48.130;11.356;2023-07-24T12:13:32;95040.00;;;26.30
54746;BMP180;40640;48.130;11.356;2023-07-24T12:17:36;95078.00;;;25.80
54746;BMP180;40640;48.130;11.356;2023-07-24T12:21:39;95078.00;;;25.50
54746;BMP180;40640;48.130;11.356;2023-07-24T12:25:42;95048.00;;;25.30
54746;BMP180;40640;48.130;11.356;2023-07-24T12:29:45;95022.00;;;25.20
54746;BMP180;40640;48.130;11.356;2023-07-24T12:33:49;95011.00;;;25.30
54746;BMP180;40640;48.130;11.356;2023-07-24T12:37:52;95030.00;;;25.30
54746;BMP180;40640;48.130;11.356;2023-07-24T12:41:55;95044.00;;;25.00
54746;BMP180;40640;48.130;11.356;2023-07-24T12:45:58;95059.00;;;24.80
54746;BMP180;40640;48.130;11.356;2023-07-24T12:50:03;95058.00;;;24.80
54746;BMP180;40640;48.130;11.356;2023-07-24T12:54:08;95075.00;;;25.40
54746;BMP180;40640;48.130;11.356;2023-07-24T12:58:25;95070.00;;;24.90
54746;BMP180;40640;48.130;11.356;2023-07-24T13:02:28;95066.00;;;24.50
54746;BMP180;40640;48.130;11.356;2023-07-24T13:06:32;95056.00;;;24.20
54746;BMP180;40640;48.130;11.356;2023-07-24T13:10:35;95045.00;;;24.10
54746;BMP180;40640;48.130;11.356;2023-07-24T13:14:38;95040.00;;;23.90
54746;BMP180;40640;48.130;11.356;2023-07-24T13:18:43;95005.00;;;23.70
54746;BMP180;40640;48.130;11.356;2023-07-24T13:22:49;94975.00;;;23.60
54746;BMP180;40640;48.130;11.356;2023-07-24T13:26:52;94963.00;;;23.50
54746;BMP180;40640;48.130;11.356;2023-07-24T13:30:55;94994.00;;;23.40
54746;BMP180;40640;48.130;11.356;2023-07-24T13:34:58;94975.00;;;23.60
54746;BMP180;40640;48.130;11.356;2023-07-24T13:39:03;94981.00;;;24.10
54746;BMP180;40640;48.130;11.356;2023-07-24T13:43:06;94968.00;;;24.20
54746;BMP180;40640;48.130;11.356;2023-07-24T13:47:09;94935.00;;;24.00
54746;BMP180;40640;48.130;11.356;2023-07-24T13:51:12;94926.00;;;24.10
54746;BMP180;40640;48.130;11.356;2023-07-24T13:55:16;94933.00;;;24.20
54746;BMP180;40640;48.130;11.356;2023-07-24T13:59:19;94927.00;;;24.30
54746;BMP180;40640;48.130;11.356;2023-07-24T14:03:22;94932.00;;;24.60
54746;BMP180;40640;48.130;11.356;2023-07-24T14:07:30;94951.00;;;24.50
54746;BMP180;40640;48.130;11.356;2023-07-24T14:11:35;94940.00;;;24.60
54746;BMP180;40640;48.130;11.356;2023-07-24T14:15:38;94933.00;;;24.60
54746;BMP180;40640;48.130;11.356;2023-07-24T14:19:41;94934.00;;;24.80
54746;BMP180;40640;48.130;11.356;2023-07-24T14:23:44;94931.00;;;24.70
54746;BMP180;40640;48.130;11.356;2023-07-24T14:27:48;94914.00;;;24.80
54746;BMP180;40640;48.130;11.356;2023-07-24T14:31:51;94908.00;;;24.70
54746;BMP180;40640;48.130;11.356;2023-07-24T14:35:54;94916.00;;;24.30
54746;BMP180;40640;48.130;11.356;2023-07-24T14:39:57;94893.00;;;24.30
54746;BMP180;40640;48.130;11.356;2023-07-24T14:44:01;94890.00;;;24.20
54746;BMP180;40640;48.130;11.356;2023-07-24T14:48:05;94881.00;;;24.10
54746;BMP180;40640;48.130;11.356;2023-07-24T14:52:10;94881.00;;;24.00
54746;BMP180;40640;48.130;11.356;2023-07-24T14:56:13;94870.00;;;24.00
54746;BMP180;40640;48.130;11.356;2023-07-24T15:00:17;94876.00;;;24.00
54746;BMP180;40640;48.130;11.356;2023-07-24T15:04:20;94882.00;;;24.10
54746;BMP180;40640;48.130;11.356;2023-07-24T15:08:23;94863.00;;;24.20
54746;BMP180;40640;48.130;11.356;2023-07-24T15:12:26;94853.00;;;24.40
54746;BMP180;40640;48.130;11.356;2023-07-24T15:16:31;94863.00;;;24.40
54746;BMP180;40640;48.130;11.356;2023-07-24T15:20:34;94869.00;;;24.40
54746;BMP180;40640;48.130;11.356;2023-07-24T15:24:36;94892.00;;;24.50
54746;BMP180;40640;48.130;11.356;2023-07-24T15:28:39;94891.00;;;24.40
54746;BMP180;40640;48.130;11.356;2023-07-24T15:32:44;94891.00;;;24.30
54746;BMP180;40640;48.130;11.356;2023-07-24T15:36:47;94880.00;;;24.20
54746;BMP180;40640;48.130;11.356;2023-07-24T15:40:50;94881.00;;;24.10
54746;BMP180;40640;48.130;11.356;2023-07-24T15:44:53;94880.00;;;24.10
54746;BMP180;40640;48.130;11.356;2023-07-24T15:48:57;94880.00;;;24.10
54746;BMP180;40640;48.130;11.356;2023-07-24T15:53:01;94879.00;;;24.20
54746;BMP180;40640;48.130;11.356;2023-07-24T15:57:04;94895.00;;;24.20
54746;BMP180;40640;48.130;11.356;2023-07-24T16:01:07;94890.00;;;24.10
54746;BMP180;40640;48.130;11.356;2023-07-24T16:05:19;94866.00;;;24.00
54746;BMP180;40640;48.130;11.356;2023-07-24T16:09:22;94849.00;;;24.00
54746;BMP180;40640;48.130;11.356;2023-07-24T16:13:25;94864.00;;;24.00
54746;BMP180;40640;48.130;11.356;2023-07-24T16:17:28;94929.00;;;23.90
54746;BMP180;40640;48.130;11.356;2023-07-24T16:21:36;94950.00;;;23.70
54746;BMP180;40640;48.130;11.356;2023-07-24T16:25:38;94935.00;;;23.50
54746;BMP180;40640;48.130;11.356;2023-07-24T16:29:41;94941.00;;;23.50
54746;BMP180;40640;48.130;11.356;2023-07-24T16:33:44;94918.00;;;23.40
54746;BMP180;40640;48.130;11.356;2023-07-24T16:37:48;94929.00;;;23.20
54746;BMP180;40640;48.130;11.356;2023-07-24T16:41:51;94938.00;;;23.10
54746;BMP180;40640;48.130;11.356;2023-07-24T16:45:54;94910.00;;;22.80
54746;BMP180;40640;48.130;11.356;2023-07-24T16:50:00;94931.00;;;22.70
54746;BMP180;40640;48.130;11.356;2023-07-24T16:54:05;94908.00;;;22.60
54746;BMP180;40640;48.130;11.356;2023-07-24T16:58:08;94873.00;;;22.30
54746;BMP180;40640;48.130;11.356;2023-07-24T17:02:10;94873.00;;;22.30
54746;BMP180;40640;48.130;11.356;2023-07-24T17:06:13;94851.00;;;22.20
54746;BMP180;40640;48.130;11.356;2023-07-24T17:10:17;94825.00;;;22.00
54746;BMP180;40640;48.130;11.356;2023-07-24T17:14:22;94786.00;;;22.00
54746;BMP180;40640;48.130;11.356;2023-07-24T17:18:25;94758.00;;;22.00
54746;BMP180;40640;48.130;11.356;2023-07-24T17:22:28;94754.00;;;21.90
54746;BMP180;40640;48.130;11.356;2023-07-24T17:26:32;94768.00;;;21.80
54746;BMP180;40640;48.130;11.356;2023-07-24T17:30:36;94783.00;;;21.70
54746;BMP180;40640;48.130;11.356;2023-07-24T17:34:39;94803.00;;;21.60
54746;BMP180;40640;48.130;11.356;2023-07-24T17:38:42;94814.00;;;21.50
54746;BMP180;40640;48.130;11.356;2023-07-24T17:42:46;94818.00;;;21.50
54746;BMP180;40640;48.130;11.356;2023-07-24T17:46:49;94808.00;;;21.30
54746;BMP180;40640;48.130;11.356;2023-07-24T17:50:52;94806.00;;;21.30
54746;BMP180;40640;48.130;11.356;2023-07-24T17:54:55;94816.00;;;21.30
54746;BMP180;40640;48.130;11.356;2023-07-24T17:58:59;94837.00;;;21.40
54746;BMP180;40640;48.130;11.356;2023-07-24T18:03:02;94834.00;;;21.30
54746;BMP180;40640;48.130;11.356;2023-07-24T18:07:05;94829.00;;;21.20
54746;BMP180;40640;48.130;11.356;2023-07-24T18:11:08;94833.00;;;21.10
54746;BMP180;40640;48.130;11.356;2023-07-24T18:15:13;94815.00;;;21.10
54746;BMP180;40640;48.130;11.356;2023-07-24T18:19:16;94833.00;;;21.10
54746;BMP180;40640;48.130;11.356;2023-07-24T18:23:18;94824.00;;;21.00
54746;BMP180;40640;48.130;11.356;2023-07-24T18:27:21;94846.00;;;20.90
54746;BMP180;40640;48.130;11.356;2023-07-24T18:31:26;94864.00;;;20.90
54746;BMP180;40640;48.130;11.356;2023-07-24T18:35:29;94846.00;;;20.80
54746;BMP180;40640;48.130;11.356;2023-07-24T18:39:32;94856.00;;;20.90
54746;BMP180;40640;48.130;11.356;2023-07-24T18:43:38;94842.00;;;20.80
54746;BMP180;40640;48.130;11.356;2023-07-24T18:47:42;94835.00;;;20.90
54746;BMP180;40640;48.130;11.356;2023-07-24T18:51:45;94846.00;;;20.80
54746;BMP180;40640;48.130;11.356;2023-07-24T18:55:48;94851.00;;;20.70
54746;BMP180;40640;48.130;11.356;2023-07-24T18:59:51;94866.00;;;20.80
54746;BMP180;40640;48.130;11.356;2023-07-24T19:03:55;94842.00;;;20.80
54746;BMP180;40640;48.130;11.356;2023-07-24T19:07:58;94895.00;;;20.60
54746;BMP180;40640;48.130;11.356;2023-07-24T19:12:01;94880.00;;;20.70
54746;BMP180;40640;48.130;11.356;2023-07-24T19:16:04;94878.00;;;20.70
54746;BMP180;40640;48.130;11.356;2023-07-24T19:20:09;94857.00;;;20.60
54746;BMP180;40640;48.130;11.356;2023-07-24T19:24:12;94898.00;;;20.60
54746;BMP180;40640;48.130;11.356;2023-07-24T19:28:14;94915.00;;;20.60
54746;BMP180;40640;48.130;11.356;2023-07-24T19:32:17;94917.00;;;20.60
54746;BMP180;40640;48.130;11.356;2023-07-24T19:36:23;94921.00;;;20.60
54746;BMP180;40640;48.130;11.356;2023-07-24T19:40:26;94920.00;;;20.50
54746;BMP180;40640;48.130;11.356;2023-07-24T19:44:29;94913.00;;;20.50
54746;BMP180;40640;48.130;11.356;2023-07-24T19:48:32;94875.00;;;20.50
54746;BMP180;40640;48.130;11.356;2023-07-24T19:52:36;94878.00;;;20.40
54746;BMP180;40640;48.130;11.356;2023-07-24T19:56:39;94860.00;;;20.40
54746;BMP180;40640;48.130;11.356;2023-07-24T20:00:42;94868.00;;;20.30
54746;BMP180;40640;48.130;11.356;2023-07-24T20:04:45;94905.00;;;20.30
54746;BMP180;40640;48.130;11.356;2023-07-24T20:08:49;94911.00;;;20.30
54746;BMP180;40640;48.130;11.356;2023-07-24T20:12:52;94905.00;;;20.40
54746;BMP180;40640;48.130;11.356;2023-07-24T20:16:56;94889.00;;;20.20
54746;BMP180;40640;48.130;11.356;2023-07-24T20:20:59;94912.00;;;20.30
54746;BMP180;40640;48.130;11.356;2023-07-24T20:25:05;94909.00;;;20.30
54746;BMP180;40640;48.130;11.356;2023-07-24T20:29:08;94913.00;;;20.30
54746;BMP180;40640;48.130;11.356;2023-07-24T20:33:11;94922.00;;;20.30
54746;BMP180;40640;48.130;11.356;2023-07-24T20:37:14;94912.00;;;20.30
54746;BMP180;40640;48.130;11.356;2023-07-24T20:41:18;94905.00;;;20.30
54746;BMP180;40640;48.130;11.356;2023-07-24T20:45:21;94917.00;;;20.20
54746;BMP180;40640;48.130;11.356;2023-07-24T20:49:24;94917.00;;;20.20
54746;BMP180;40640;48.130;11.356;2023-07-24T20:53:30;94916.00;;;20.10
54746;BMP180;40640;48.130;11.356;2023-07-24T20:57:35;94920.00;;;20.10
54746;BMP180;40640;48.130;11.356;2023-07-24T21:01:39;94931.00;;;20.20
54746;BMP180;40640;48.130;11.356;2023-07-24T21:05:44;94938.00;;;20.00
54746;BMP180;40640;48.130;11.356;2023-07-24T21:09:48;94941.00;;;19.90
54746;BMP180;40640;48.130;11.356;2023-07-24T21:13:55;94937.00;;;20.00
54746;BMP180;40640;48.130;11.356;2023-07-24T21:17:58;94932.00;;;19.90
54746;BMP180;40640;48.130;11.356;2023-07-24T21:22:01;94936.00;;;19.90
54746;BMP180;40640;48.130;11.356;2023-07-24T21:26:07;94946.00;;;19.80
54746;BMP180;40640;48.130;11.356;2023-07-24T21:30:12;94929.00;;;19.80
54746;BMP180;40640;48.130;11.356;2023-07-24T21:34:15;94945.00;;;19.90
54746;BMP180;40640;48.130;11.356;2023-07-24T21:38:18;94969.00;;;19.90
54746;BMP180;40640;48.130;11.356;2023-07-24T21:42:21;94976.00;;;19.90
54746;BMP180;40640;48.130;11.356;2023-07-24T21:46:25;94967.00;;;19.90
54746;BMP180;40640;48.130;11.356;2023-07-24T21:50:28;94960.00;;;19.90
54746;BMP180;40640;48.130;11.356;2023-07-24T21:54:31;94974.00;;;19.90
54746;BMP180;40640;48.130;11.356;2023-07-24T21:58:33;94982.00;;;19.90
54746;BMP180;40640;48.130;11.356;2023-07-24T22:02:38;94978.00;;;20.00
54746;BMP180;40640;48.130;11.356;2023-07-24T22:06:41;94990.00;;;20.00
54746;BMP180;40640;48.130;11.356;2023-07-24T22:10:44;94977.00;;;19.90
54746;BMP180;40640;48.130;11.356;2023-07-24T22:14:46;94970.00;;;20.00
54746;BMP180;40640;48.130;11.356;2023-07-24T22:18:51;94973.00;;;19.90
54746;BMP180;40640;48.130;11.356;2023-07-24T22:22:54;94965.00;;;19.80
54746;BMP180;40640;48.130;11.356;2023-07-24T22:26:56;94956.00;;;19.80
54746;BMP180;40640;48.130;11.356;2023-07-24T22:30:59;94950.00;;;19.80
54746;BMP180;40640;48.130;11.356;2023-07-24T22:35:05;94932.00;;;19.80
54746;BMP180;40640;48.130;11.356;2023-07-24T22:39:08;94931.00;;;19.80
54746;BMP180;40640;48.130;11.356;2023-07-24T22:43:12;94934.00;;;19.80
54746;BMP180;40640;48.130;11.356;2023-07-24T22:47:15;94949.00;;;19.70
54746;BMP180;40640;48.130;11.356;2023-07-24T22:51:19;94950.00;;;19.80
54746;BMP180;40640;48.130;11.356;2023-07-24T22:55:22;94932.00;;;19.60
54746;BMP180;40640;48.130;11.356;2023-07-24T22:59:26;94920.00;;;19.60
54746;BMP180;40640;48.130;11.356;2023-07-24T23:03:29;94917.00;;;19.50